createdAt,value
2022-08-28T00:03:15.590Z,54.03
2022-08-28T00:06:38.381Z,48.47
2022-08-28T00:09:59.354Z,52.05
2022-08-28T00:13:26.387Z,51.03
2022-08-28T00:16:48.233Z,55.63
2022-08-28T00:20:09.350Z,57.55
2022-08-28T00:23:38.807Z,60.05
2022-08-28T00:27:21.371Z,64.65
2022-08-28T00:30:42.387Z,63.00
2022-08-28T00:34:03.373Z,65.75
2022-08-28T00:37:24.735Z,69.70
2022-08-28T00:40:45.416Z,68.15
2022-08-28T00:44:20.354Z,71.35
2022-08-28T00:47:41.366Z,78.72
2022-08-28T00:51:38.390Z,82.15
2022-08-28T00:55:07.412Z,135.85
2022-08-28T00:58:28.363Z,85.10
2022-08-28T01:01:50.396Z,77.88
2022-08-28T01:05:11.349Z,82.65
2022-08-28T01:08:32.389Z,80.75
2022-08-28T01:11:56.399Z,86.10
2022-08-28T01:15:24.376Z,103.07
2022-08-28T01:18:47.364Z,85.40
2022-08-28T01:22:57.365Z,83.82
2022-08-28T01:26:18.379Z,80.03
2022-08-28T01:29:39.396Z,86.43
2022-08-28T01:33:04.416Z,85.03
2022-08-28T01:36:26.375Z,88.25
2022-08-28T01:39:47.414Z,90.07
2022-08-28T01:43:08.392Z,80.50
2022-08-28T01:46:29.441Z,86.43
2022-08-28T01:49:50.386Z,81.82
2022-08-28T01:53:12.488Z,80.45
2022-08-28T01:56:33.387Z,78.15
2022-08-28T01:59:54.390Z,76.78
2022-08-28T02:03:16.378Z,79.05
2022-08-28T02:06:37.401Z,68.68
2022-08-28T02:09:58.388Z,70.00
2022-08-28T02:13:20.388Z,68.55
2022-08-28T02:16:41.395Z,74.13
2022-08-28T02:20:02.393Z,66.40
2022-08-28T02:23:24.369Z,72.18
2022-08-28T02:26:45.410Z,66.22
2022-08-28T02:30:06.383Z,72.97
2022-08-28T02:33:27.411Z,69.90
2022-08-28T02:36:48.403Z,67.93
2022-08-28T02:40:10.448Z,61.72
2022-08-28T02:43:31.382Z,60.67
2022-08-28T02:46:52.389Z,64.18
2022-08-28T02:50:14.402Z,67.10
2022-08-28T02:53:35.417Z,64.85
2022-08-28T02:56:56.426Z,59.03
2022-08-28T03:00:23.432Z,60.35
2022-08-28T03:03:46.431Z,68.03
2022-08-28T03:07:07.427Z,60.67
2022-08-28T03:10:28.419Z,56.90
2022-08-28T03:13:49.424Z,61.25
2022-08-28T03:17:10.428Z,64.53
2022-08-28T03:20:31.410Z,59.20
2022-08-28T03:23:53.430Z,70.00
2022-08-28T03:27:14.416Z,63.65
2022-08-28T03:30:36.448Z,60.33
2022-08-28T03:33:57.425Z,64.07
2022-08-28T03:37:18.439Z,74.82
2022-08-28T03:40:39.462Z,71.10
2022-08-28T03:44:00.450Z,69.82
2022-08-28T03:47:21.572Z,67.63
2022-08-28T03:50:42.481Z,70.07
2022-08-28T03:54:04.429Z,56.47
2022-08-28T03:57:25.453Z,65.50
2022-08-28T04:00:46.439Z,59.78
2022-08-28T04:04:07.457Z,61.17
2022-08-28T04:07:29.647Z,65.95
2022-08-28T04:10:51.434Z,60.63
2022-08-28T04:14:12.432Z,55.58
2022-08-28T04:17:33.438Z,60.00
2022-08-28T04:20:54.418Z,58.33
2022-08-28T04:24:15.452Z,61.92
2022-08-28T04:27:36.430Z,60.28
2022-08-28T04:30:57.472Z,58.25
2022-08-28T04:34:20.461Z,60.22
2022-08-28T04:37:44.440Z,66.38
2022-08-28T04:41:05.462Z,52.85
2022-08-28T04:44:26.448Z,69.70
2022-08-28T04:47:52.479Z,62.08
2022-08-28T04:51:13.453Z,53.88
2022-08-28T04:54:34.489Z,57.33
2022-08-28T04:57:55.458Z,56.53
2022-08-28T05:01:22.580Z,54.92
2022-08-28T05:04:43.463Z,62.80
2022-08-28T05:08:04.462Z,56.80
2022-08-28T05:11:34.078Z,63.15
2022-08-28T05:14:55.459Z,59.47
2022-08-28T05:18:16.442Z,60.50
2022-08-28T05:21:37.470Z,62.60
2022-08-28T05:24:58.459Z,64.20
2022-08-28T05:28:20.498Z,68.93
2022-08-28T05:31:46.228Z,61.78
2022-08-28T05:35:07.473Z,70.60
2022-08-28T05:38:30.468Z,59.80
2022-08-28T05:41:54.491Z,64.43
2022-08-28T05:45:15.462Z,67.20
2022-08-28T05:48:39.460Z,61.47
2022-08-28T05:52:00.456Z,73.28
2022-08-28T05:55:16.513Z,66.43
2022-08-28T05:58:37.451Z,69.90
2022-08-28T06:01:54.532Z,71.80
2022-08-28T06:05:15.456Z,67.18
2022-08-28T06:08:36.484Z,75.95
2022-08-28T06:11:58.459Z,69.53
2022-08-28T06:15:19.500Z,78.10
2022-08-28T06:18:41.528Z,65.63
2022-08-28T06:22:07.123Z,65.15
2022-08-28T06:25:28.532Z,56.35
2022-08-28T06:28:49.484Z,74.85
2022-08-28T06:32:13.582Z,70.20
2022-08-28T06:35:34.509Z,65.30
2022-08-28T06:38:55.555Z,59.53
2022-08-28T06:42:16.522Z,60.40
2022-08-28T06:45:37.610Z,67.60
2022-08-28T06:48:58.477Z,56.28
2022-08-28T06:52:19.492Z,67.50
2022-08-28T06:55:40.485Z,50.80
2022-08-28T06:59:02.495Z,68.18
2022-08-28T07:02:23.555Z,67.18
2022-08-28T07:05:49.492Z,70.85
2022-08-28T07:09:10.527Z,64.40
2022-08-28T07:12:31.518Z,69.45
2022-08-28T07:15:52.663Z,67.63
2022-08-28T07:19:14.513Z,64.78
2022-08-28T07:22:35.505Z,69.35
2022-08-28T07:25:56.584Z,69.88
2022-08-28T07:29:18.503Z,62.25
2022-08-28T07:32:40.503Z,71.75
2022-08-28T07:36:01.486Z,64.30
2022-08-28T07:39:24.498Z,61.58
2022-08-28T07:42:56.528Z,69.78
2022-08-28T07:46:20.562Z,60.42
2022-08-28T07:49:41.499Z,65.03
2022-08-28T07:53:02.533Z,62.08
2022-08-28T07:56:23.529Z,60.03
2022-08-28T07:59:44.522Z,59.85
2022-08-28T08:03:05.597Z,63.83
2022-08-28T08:06:26.516Z,63.78
2022-08-28T08:09:54.531Z,55.85
2022-08-28T08:13:18.505Z,65.93
2022-08-28T08:16:40.614Z,54.08
2022-08-28T08:20:01.612Z,58.53
2022-08-28T08:23:22.591Z,58.42
2022-08-28T08:26:43.559Z,61.78
2022-08-28T08:30:10.545Z,63.78
2022-08-28T08:33:31.515Z,56.05
2022-08-28T08:36:52.541Z,55.83
2022-08-28T08:40:13.589Z,69.32
2022-08-28T08:43:35.532Z,60.13
2022-08-28T08:47:13.227Z,57.72
2022-08-28T08:50:48.527Z,57.17
2022-08-28T08:54:19.522Z,55.17
2022-08-28T08:57:41.540Z,50.67
2022-08-28T09:01:36.584Z,64.25
2022-08-28T09:05:07.617Z,51.15
2022-08-28T09:08:39.557Z,46.60
2022-08-28T09:12:10.526Z,47.88
2022-08-28T09:15:50.491Z,49.60
2022-08-28T09:19:12.542Z,44.72
2022-08-28T09:22:33.552Z,44.00
2022-08-28T09:26:10.528Z,37.03
2022-08-28T09:29:39.556Z,35.65
2022-08-28T09:33:11.530Z,30.40
2022-08-28T09:36:47.550Z,27.02
2022-08-28T09:40:58.596Z,34.00
2022-08-28T09:44:19.541Z,34.67
2022-08-28T09:47:55.557Z,34.10
2022-08-28T09:51:45.557Z,41.23
2022-08-28T09:55:06.546Z,33.55
2022-08-28T09:58:27.546Z,35.05
2022-08-28T10:01:55.593Z,32.28
2022-08-28T10:05:26.784Z,32.80
2022-08-28T10:08:48.573Z,32.53
2022-08-28T10:12:23.531Z,32.80
2022-08-28T10:15:47.650Z,31.92
2022-08-28T10:19:33.576Z,32.03
2022-08-28T10:23:27.550Z,23.55
2022-08-28T10:26:55.563Z,23.98
2022-08-28T10:30:29.550Z,16.33
2022-08-28T10:33:50.563Z,14.60
2022-08-28T10:37:28.566Z,21.10
2022-08-28T10:41:04.557Z,17.95
2022-08-28T10:44:32.551Z,12.93
2022-08-28T10:47:58.577Z,15.20
2022-08-28T10:51:35.268Z,14.02
2022-08-28T10:55:19.568Z,18.02
2022-08-28T10:58:41.583Z,18.92
2022-08-28T11:02:03.580Z,18.85
2022-08-28T11:05:24.593Z,16.13
2022-08-28T11:08:49.559Z,17.13
2022-08-28T11:12:19.577Z,18.38
2022-08-28T11:15:43.570Z,17.67
2022-08-28T11:19:20.591Z,18.10
2022-08-28T11:22:55.564Z,24.30
2022-08-28T11:26:22.583Z,24.88
2022-08-28T11:30:11.571Z,15.48
2022-08-28T11:34:07.588Z,14.05
2022-08-28T11:37:56.591Z,17.73
2022-08-28T11:42:09.591Z,17.25
2022-08-28T11:45:56.648Z,16.58
2022-08-28T11:53:15.615Z,18.80
2022-08-28T11:57:02.622Z,16.58
2022-08-28T12:00:34.596Z,13.98
2022-08-28T12:04:08.446Z,18.27
2022-08-28T12:07:29.631Z,18.08
2022-08-28T12:10:53.614Z,22.17
2022-08-28T12:14:14.595Z,19.77
2022-08-28T12:17:36.599Z,16.17
2022-08-28T12:21:07.299Z,19.77
2022-08-28T12:24:37.615Z,18.85
2022-08-28T12:27:59.596Z,16.95
2022-08-28T12:31:20.723Z,18.75
2022-08-28T12:34:59.582Z,18.75
2022-08-28T12:38:21.612Z,17.58
2022-08-28T12:41:36.598Z,23.48
2022-08-28T12:44:58.599Z,18.47
2022-08-28T12:48:30.593Z,19.75
2022-08-28T12:51:51.616Z,15.82
2022-08-28T12:55:12.601Z,16.27
2022-08-28T12:58:47.614Z,16.02
2022-08-28T13:02:25.693Z,15.80
2022-08-28T13:05:51.617Z,17.77
2022-08-28T13:09:30.606Z,15.02
2022-08-28T13:12:56.096Z,14.18
2022-08-28T13:16:23.623Z,18.75
2022-08-28T13:19:45.598Z,14.13
2022-08-28T13:23:06.667Z,19.08
2022-08-28T13:26:39.602Z,15.32
2022-08-28T13:30:27.675Z,18.63
2022-08-28T13:33:48.638Z,13.70
2022-08-28T13:37:55.620Z,14.30
2022-08-28T13:41:18.660Z,16.60
2022-08-28T13:44:46.623Z,19.08
2022-08-28T13:48:07.624Z,12.02
2022-08-28T13:51:28.613Z,15.82
2022-08-28T13:54:50.676Z,14.73
2022-08-28T13:58:11.622Z,15.70
2022-08-28T14:01:55.736Z,18.35
2022-08-28T14:05:16.627Z,15.27
2022-08-28T14:08:37.695Z,13.98
2022-08-28T14:11:59.643Z,17.10
2022-08-28T14:15:20.657Z,13.95
2022-08-28T14:18:41.621Z,12.80
2022-08-28T14:22:02.639Z,15.23
2022-08-28T14:25:23.635Z,17.00
2022-08-28T14:28:44.661Z,14.35
2022-08-28T14:32:06.703Z,13.57
2022-08-28T14:35:27.619Z,23.25
2022-08-28T14:38:48.620Z,12.65
2022-08-28T14:42:12.937Z,16.13
2022-08-28T14:45:33.686Z,17.60
2022-08-28T14:48:54.647Z,19.23
2022-08-28T14:52:15.625Z,28.80
2022-08-28T14:55:36.622Z,25.65
2022-08-28T14:58:57.639Z,26.50
2022-08-28T15:02:19.636Z,25.70
2022-08-28T15:05:40.621Z,28.30
2022-08-28T15:09:01.637Z,31.85
2022-08-28T15:12:22.617Z,32.20
2022-08-28T15:15:43.648Z,38.80
2022-08-28T15:19:05.642Z,45.08
2022-08-28T15:22:27.444Z,39.22
2022-08-28T15:25:48.666Z,36.17
2022-08-28T15:29:10.645Z,41.50
2022-08-28T15:32:31.651Z,36.83
2022-08-28T15:35:52.642Z,35.35
2022-08-28T15:39:31.670Z,40.75
2022-08-28T15:42:52.654Z,38.90
2022-08-28T15:46:13.707Z,37.95
2022-08-28T15:49:36.187Z,33.67
2022-08-28T15:53:06.614Z,36.70
2022-08-28T15:56:29.642Z,35.47
2022-08-28T15:59:50.962Z,43.10
2022-08-28T16:03:12.903Z,35.08
2022-08-28T16:06:35.666Z,42.13
2022-08-28T16:09:56.656Z,38.22
2022-08-28T16:13:12.822Z,39.85
2022-08-28T16:16:33.790Z,40.53
2022-08-28T16:19:55.679Z,51.45
2022-08-28T16:23:17.655Z,42.60
2022-08-28T16:26:38.684Z,44.85
2022-08-28T16:29:59.684Z,53.60
2022-08-28T16:33:26.678Z,40.28
2022-08-28T16:36:47.685Z,46.47
2022-08-28T16:40:08.686Z,48.55
2022-08-28T16:43:22.671Z,47.03
2022-08-28T16:46:44.696Z,49.58
2022-08-28T16:50:12.685Z,56.65
2022-08-28T16:53:33.673Z,54.08
2022-08-28T16:56:54.685Z,47.58
2022-08-28T17:00:17.680Z,52.35
2022-08-28T17:03:38.721Z,60.80
2022-08-28T17:06:59.684Z,58.70
2022-08-28T17:10:22.679Z,57.45
2022-08-28T17:13:43.675Z,68.05
2022-08-28T17:17:05.703Z,70.85
2022-08-28T17:20:45.680Z,71.95
2022-08-28T17:24:06.709Z,70.03
2022-08-28T17:27:27.701Z,79.13
2022-08-28T17:30:48.692Z,77.20
2022-08-28T17:34:09.741Z,75.75
2022-08-28T17:37:31.753Z,82.25
2022-08-28T17:40:52.697Z,83.45
2022-08-28T17:44:14.715Z,81.63
2022-08-28T17:47:35.656Z,91.38
2022-08-28T17:50:57.737Z,100.05
2022-08-28T17:54:18.695Z,95.97
2022-08-28T17:57:40.834Z,106.72
2022-08-28T18:01:01.758Z,109.18
2022-08-28T18:04:24.495Z,121.03
2022-08-28T18:07:45.685Z,103.22
2022-08-28T18:11:06.711Z,93.22
2022-08-28T18:14:27.699Z,99.53
2022-08-28T18:17:54.704Z,98.55
2022-08-28T18:21:15.718Z,94.57
2022-08-28T18:24:36.703Z,87.70
2022-08-28T18:27:57.726Z,92.90
2022-08-28T18:31:19.781Z,87.50
2022-08-28T18:34:40.741Z,95.47
2022-08-28T18:38:03.704Z,93.57
2022-08-28T18:41:30.672Z,86.30
2022-08-28T18:45:04.760Z,86.65
2022-08-28T18:48:25.768Z,83.30
2022-08-28T18:51:46.734Z,84.30
2022-08-28T18:55:07.726Z,79.30
2022-08-28T18:58:28.807Z,85.22
2022-08-28T19:01:49.843Z,79.03
2022-08-28T19:05:10.827Z,77.72
2022-08-28T19:08:31.749Z,83.55
2022-08-28T19:11:52.728Z,75.22
2022-08-28T19:15:13.764Z,63.45
2022-08-28T19:18:35.713Z,70.15
2022-08-28T19:21:56.747Z,67.47
2022-08-28T19:25:27.907Z,65.55
2022-08-28T19:28:51.746Z,63.88
2022-08-28T19:32:12.741Z,64.45
2022-08-28T19:35:33.758Z,56.47
2022-08-28T19:38:54.719Z,61.28
2022-08-28T19:42:15.730Z,64.07
2022-08-28T19:45:36.721Z,58.53
2022-08-28T19:48:57.767Z,61.13
2022-08-28T19:52:18.717Z,58.45
2022-08-28T19:55:40.755Z,59.13
2022-08-28T19:59:01.777Z,56.72
2022-08-28T20:02:22.854Z,57.58
2022-08-28T20:05:43.774Z,53.97
2022-08-28T20:09:06.593Z,56.92
2022-08-28T20:15:59.798Z,44.65
2022-08-28T20:19:22.755Z,45.83
2022-08-28T20:22:43.743Z,51.75
2022-08-28T20:26:05.752Z,47.47
2022-08-28T20:29:26.746Z,42.05
2022-08-28T20:32:47.749Z,43.70
2022-08-28T20:36:16.320Z,48.65
2022-08-28T20:39:43.780Z,44.83
2022-08-28T20:43:04.737Z,50.25
2022-08-28T20:46:27.784Z,47.10
2022-08-28T20:49:48.738Z,40.83
2022-08-28T20:53:10.754Z,49.70
2022-08-28T20:56:31.735Z,41.45
2022-08-28T20:59:55.745Z,47.63
2022-08-28T21:03:18.795Z,41.95
2022-08-28T21:06:46.758Z,43.08
2022-08-28T21:10:08.240Z,47.10
2022-08-28T21:13:28.768Z,44.28
2022-08-28T21:16:51.811Z,42.30
2022-08-28T21:20:15.763Z,41.97
2022-08-28T21:23:36.784Z,41.28
2022-08-28T21:27:00.804Z,53.70
2022-08-28T21:30:23.784Z,52.75
2022-08-28T21:33:50.764Z,51.22
2022-08-28T21:37:12.779Z,51.92
2022-08-28T21:40:33.819Z,47.03
2022-08-28T21:43:57.783Z,61.00
2022-08-28T21:47:18.885Z,58.22
2022-08-28T21:50:39.776Z,52.35
2022-08-28T21:54:00.802Z,53.78
2022-08-28T21:57:21.798Z,51.45
2022-08-28T22:00:42.774Z,49.97
2022-08-28T22:04:03.807Z,51.50
2022-08-28T22:07:33.789Z,48.92
2022-08-28T22:10:56.808Z,48.45
2022-08-28T22:14:17.815Z,50.72
2022-08-28T22:17:38.806Z,55.22
2022-08-28T22:21:18.794Z,54.92
2022-08-28T22:24:39.807Z,53.90
2022-08-28T22:28:00.805Z,61.45
2022-08-28T22:31:21.809Z,43.53
2022-08-28T22:34:35.844Z,52.92
2022-08-28T22:37:56.807Z,58.10
2022-08-28T22:41:17.821Z,58.67
2022-08-28T22:44:38.820Z,54.25
2022-08-28T22:48:00.810Z,60.13
2022-08-28T22:51:24.870Z,60.60
2022-08-28T22:54:46.826Z,59.97
2022-08-28T22:58:07.884Z,57.45
2022-08-28T23:01:31.843Z,57.30
2022-08-28T23:04:52.824Z,58.75
2022-08-28T23:08:13.916Z,57.47
2022-08-28T23:11:34.870Z,57.78
2022-08-28T23:14:55.863Z,63.55
2022-08-28T23:18:16.829Z,56.00
2022-08-28T23:21:43.955Z,60.15
2022-08-28T23:25:04.830Z,58.67
2022-08-28T23:28:26.861Z,57.22
2022-08-28T23:31:47.946Z,50.38
2022-08-28T23:35:08.835Z,58.40
2022-08-28T23:38:29.840Z,50.65
2022-08-28T23:41:50.843Z,57.35
2022-08-28T23:45:11.831Z,57.70
2022-08-28T23:48:32.809Z,57.55
2022-08-28T23:51:54.821Z,60.05
2022-08-28T23:55:15.861Z,55.60
2022-08-28T23:58:36.799Z,59.25
